• Join FlightAware (Why Join?)
  • Login
  • US Flag 
08:15AM EST


 

Airport Tracker/Info


-or-


 

Live Flight TrackerFlight Track Log ✈ ASQ6073 ✈ 15-Jun-2013 ✈ KIAH - KGSP

Flight Track Log - Related Links

Times and Time Zones

All times are in EDT time to prevent confusion due to time zone crossing. See the ASQ6073 flight status page for this flight to view local times or setup timezone preferences in your user account.

Time Position Orientation Groundspeed Altitude Reporting Facility
EDT Latitude Longitude Course Direction KTS MPH feet Rate Location/Type
02:23PM 29.9572 -95.3392 95° East 174 200 800  Level Houston Center
02:25PM 29.9061 -95.2636 128° Southeast 249 287 3,000 1,260 Climbing Houston Center
02:26PM 29.9264 -94.9537 97° East  Level FlightAware Approximate
02:26PM 29.8903 -95.1836 103° East 277 319 4,000  Level Houston Center
02:27PM 29.9133 -94.8262 95° East  Level FlightAware Approximate
02:27PM 29.8875 -95.0961 92° East 264 304 5,600  Level Houston Center
02:28PM 29.9027 -94.6983 95° East  Level FlightAware Approximate
02:28PM 29.8844 -95.0117 92° East 264 304 7,900  Level Houston Center
02:29PM 29.8825 -94.9242 91° East 270 311 9,900 1,740 Climbing Houston Center
02:30PM 29.8789 -94.8150 92° East 283 326 11,500 1,260 Climbing Houston Center
02:31PM 29.8764 -94.7133 92° East 311 358 12,600 960 Climbing Houston Center
02:32PM 29.8722 -94.6053 93° East 330 380 13,600 960 Climbing Houston Center
02:33PM 29.8683 -94.4928 92° East 344 396 14,700 960 Climbing Houston Center
02:34PM 29.8642 -94.3778 92° East 354 407 15,700 960 Climbing Houston Center
02:35PM 29.8603 -94.2614 92° East 361 415 16,700 1,020 Climbing Houston Center
02:36PM 29.8564 -94.1200 92° East 372 428 17,900 1,020 Climbing Houston Center
02:37PM 29.8578 -94.0003 89° East 375 432 18,900 840 Climbing Houston Center
02:38PM 29.8708 -93.8778 83° East 385 443 19,700 720 Climbing Houston Center
02:39PM 29.8842 -93.7511 83° East 397 457 20,500 780 Climbing Houston Center
02:40PM 29.8983 -93.6231 83° East 403 464 21,400 900 Climbing Houston Center
02:41PM 29.9131 -93.4661 84° East 414 476 22,400 840 Climbing Houston Center
02:42PM 29.9267 -93.3364 83° East 413 475 23,200 780 Climbing Houston Center
02:43PM 29.9394 -93.2039 84° East 418 481 24,000 780 Climbing Houston Center
02:44PM 29.9533 -93.0722 83° East 417 480 24,900 780 Climbing Houston Center
02:45PM 29.9658 -92.9392 84° East 419 482 25,700 720 Climbing Houston Center
02:46PM 29.9789 -92.8069 83° East 418 481 26,500 900 Climbing Houston Center
02:47PM 29.9928 -92.6469 84° East 420 483 27,600 960 Climbing Houston Center
02:48PM 30.0031 -92.5161 85° East 415 478 28,500 840 Climbing Houston Center
02:49PM 30.0131 -92.3861 85° East 409 471 29,400 900 Climbing Houston Center
02:50PM 30.0236 -92.2550 85° East 411 473 30,400 900 Climbing Houston Center
02:51PM 30.0325 -92.1264 85° East 406 467 31,300 840 Climbing Houston Center
02:53PM 30.0411 -91.9953 86° East 409 471 32,200 960 Climbing Houston Center
02:54PM 30.0536 -91.8378 85° East 411 473 33,300 960 Climbing Houston Center
02:55PM 30.0636 -91.7033 85° East 415 478 34,300 780 Climbing Houston Center
02:56PM 30.0736 -91.5697 85° East 420 483 35,000 300 Climbing Houston Center
02:57PM 30.0842 -91.4306 85° East 435 501 35,000  Level Houston Center
02:58PM 30.0950 -91.2850 85° East 457 526 35,000  Level Houston Center
02:59PM 30.1036 -91.1392 86° East 456 525 35,000  Level Houston Center
03:00PM 30.1158 -90.9644 85° East 457 526 35,000  Level Houston Center
03:01PM 30.1483 -90.8242 75° East 455 524 35,000  Level Houston Center
03:02PM 30.1819 -90.6867 74° East 449 517 35,000  Level Houston Center
03:03PM 30.2153 -90.5489 74° East 446 513 35,000  Level Houston Center
03:04PM 30.2494 -90.4114 74° East 446 513 35,000  Level Houston Center
03:05PM 30.2822 -90.2739 75° East 446 513 35,000  Level Houston Center
03:06PM 30.3147 -90.1361 75° East 444 511 35,000 -60 Level Houston Center
03:07PM 30.3544 -89.9708 74° East 443 510 34,900  Descending Houston Center
03:08PM 30.3856 -89.8375 75° East 447 514 35,000  Climbing Houston Center
03:09PM 30.4192 -89.7000 74° East 447 514 35,000  Level Houston Center
03:10PM 30.4561 -89.5419 75° East 450 518 35,000  Level Houston Center
03:11PM 30.4872 -89.4056 75° East 443 510 35,000  Level Houston Center
03:12PM 30.5186 -89.2672 75° East 444 511 35,000  Level Houston Center
03:13PM 30.5503 -89.1292 75° East 444 511 35,000  Level Houston Center
03:14PM 30.5808 -88.9906 76° East 445 512 35,000  Level Houston Center
03:15PM 30.6142 -88.8439 75° East 444 511 35,000  Level Houston Center
03:16PM 30.6453 -88.7061 75° East 444 511 35,000  Level Houston Center
03:17PM 30.6767 -88.5686 75° East 444 511 35,000  Level Houston Center
03:18PM 30.7125 -88.4097 75° East 444 511 35,000  Level Houston Center
03:19PM 30.7747 -88.2889 59° Northeast 438 504 35,000  Level Houston Center
03:20PM 30.8544 -88.1822 49° Northeast 439 505 35,000  Level Houston Center
03:21PM 30.9372 -88.0747 48° Northeast 445 512 35,000  Level Houston Center
03:22PM 31.0181 -87.9675 49° Northeast 443 510 35,000  Level Houston Center
03:23PM 31.0983 -87.8608 49° Northeast 439 505 35,000  Level Houston Center
03:24PM 31.1944 -87.7322 49° Northeast 439 505 35,000  Level Houston Center
03:25PM 31.2714 -87.6269 49° Northeast 439 505 35,000  Level Houston Center
03:27PM 31.3514 -87.5214 48° Northeast 438 504 35,000  Level Houston Center
03:28PM 31.4292 -87.4133 50° Northeast 436 502 35,000  Level Houston Center
03:29PM 31.5078 -87.3053 50° Northeast 437 503 35,000  Level Houston Center
03:30PM 31.5867 -87.1978 49° Northeast 437 503 35,000  Level Houston Center
03:30PM 31.6714 -87.0914 47° Northeast 426 490 35,000  Level Atlanta Center
03:31PM 31.7364 -86.9936 52° Northeast 421 484 35,000  Level Atlanta Center
03:32PM 31.8139 -86.8861 50° Northeast 421 484 35,000  Level Atlanta Center
03:33PM 31.8936 -86.7786 49° Northeast 421 484 35,000  Level Atlanta Center
03:34PM 31.9858 -86.6614 47° Northeast 432 497 35,000  Level Atlanta Center
03:35PM 32.0611 -86.5558 50° Northeast 432 497 35,000  Level Atlanta Center
03:37PM 32.1328 -86.4458 52° Northeast  Level FlightAware Approximate
03:37PM 32.2072 -86.3511 52° Northeast 419 482 35,000  Level Atlanta Center
03:38PM 32.2803 -86.2328 54° Northeast 419 482 35,000  Level Atlanta Center
03:39PM 32.3553 -86.1189 52° Northeast 434 499 35,000  Level Atlanta Center
03:40PM 32.4322 -86.0100 50° Northeast 434 499 35,000  Level Atlanta Center
03:41PM 32.5197 -85.8789 52° Northeast 434 499 35,000  Level Atlanta Center
03:42PM 32.5967 -85.7672 51° Northeast 455 524 35,000  Level Atlanta Center
03:43PM 32.6692 -85.6550 52° Northeast 444 511 35,000  Level Atlanta Center
03:44PM 32.7456 -85.5406 52° Northeast 438 504 35,000  Level Atlanta Center
03:45PM 32.8222 -85.4281 51° Northeast 438 504 35,000  Level Atlanta Center
03:46PM 32.8964 -85.3106 53° Northeast 438 504 35,000  Level Atlanta Center
03:47PM 32.9728 -85.1978 51° Northeast 438 504 35,000  Level Atlanta Center
03:48PM 33.0403 -85.0994 51° Northeast 430 495 35,000  Level Atlanta Center
03:49PM 33.1164 -84.9814 52° Northeast 436 502 35,000 -540 Level Atlanta Center
03:50PM 33.1925 -84.8681 51° Northeast 436 502 34,000 -540 Descending Atlanta Center
03:51PM 33.2661 -84.7519 53° Northeast 442 509 34,000  Level Atlanta Center
03:52PM 33.3397 -84.6381 52° Northeast 437 503 34,000 -420 Level Atlanta Center
03:53PM 33.4156 -84.5217 52° Northeast 437 503 33,200 -1,200 Descending Atlanta Center
03:54PM 33.4889 -84.4050 53° Northeast 437 503 31,700 -1,500 Descending Atlanta Center
03:55PM 33.5664 -84.2856 52° Northeast 443 510 30,200 -1,380 Descending Atlanta Center
03:56PM 33.6419 -84.1611 54° Northeast 448 516 29,000 -600 Descending Atlanta Center
03:57PM 33.7233 -84.0389 51° Northeast 458 527 29,000  Level Atlanta Center
03:58PM 33.8025 -83.9139 53° Northeast 463 533 29,000 -660 Level Atlanta Center
03:59PM 33.8794 -83.7911 53° Northeast 458 527 27,700 -1,440 Descending Atlanta Center
04:00PM 33.9647 -83.6581 52° Northeast 458 527 26,200 -1,500 Descending Atlanta Center
04:01PM 34.0458 -83.5300 53° Northeast 467 537 24,700 -1,500 Descending Atlanta Center
04:02PM 34.1244 -83.4039 53° Northeast 472 543 23,200 -1,560 Descending Atlanta Center
04:03PM 34.2011 -83.2803 53° Northeast 465 535 21,600 -1,740 Descending Atlanta Center
04:04PM 34.2775 -83.1614 52° Northeast 453 521 19,800 -2,100 Descending Atlanta Center
04:05PM 34.3539 -83.0475 51° Northeast 440 506 17,500 -2,400 Descending Atlanta Center
04:06PM 34.4217 -82.9433 52° Northeast 421 484 15,100 -2,400 Descending Atlanta Center
04:07PM 34.4897 -82.8367 52° Northeast 399 459 12,700 -2,100 Descending Atlanta Center
04:08PM 34.5597 -82.7422 48° Northeast 381 438 11,000 -1,380 Descending Atlanta Center
04:09PM 34.6150 -82.6556 52° Northeast 360 414 10,000 -540 Descending Atlanta Center
04:10PM 34.6642 -82.5742 54° Northeast 321 369 10,000 -240 Level Atlanta Center
04:11PM 34.7219 -82.5225 36° Northeast 289 333 9,600 -1,020 Descending Atlanta Center
04:12PM 34.7881 -82.4681 34° Northeast 278 320 8,000 -1,680 Descending Atlanta Center
04:13PM 34.8458 -82.4139 38° Northeast 272 313 6,300 -1,560 Descending Atlanta Center
04:14PM 34.9036 -82.3697 32° Northeast 254 292 4,900 -1,200 Descending Atlanta Center
04:15PM 34.9572 -82.3256 34° Northeast 249 287 4,000 -900 Descending Atlanta Center
04:16PM 34.9878 -82.2717 55° Northeast 228 262 3,100 -900 Descending Atlanta Center